Decoded Metar for CYHU (MONTREAL in QC, CANADA) (IATA:YHU) | Meteo·Mobile Aviation Weather
aviador You're here:

CYHU Decoded Metar

MONTREAL in QC, CANADA
Report Time2018-08-18 15:00:00
UTC Time2018-08-18 15:45:28
Flight Rules vfr VFR
Wind030° at 11 Gusting to 16 kt
W.Decomp.*RWY 06: 10.7 kt HW 2.7 kt LCW
RWY 10: 6.5 kt HW 8.9 kt LCW
W.Rank030° ranks 7
Current wind is above 030° avg. (8.3)
Visibility9999 m
Phenomena:N/A
Clouds:Few 025 Hf
Expected CloudBase > 2,000 ft AGL from Temp-Dew spread
CeilingNone
Temp21°C (ISA +6)
Dew Point16°C (73% RH)
AAT19.0°C
QNH1013 hPa
Density Alt1,053 ft
Elevation89 ft
Report Wrong Elevation
Raw Report
CYHU 181500Z AUTO 03011G16KT 9SM FEW025 21/16 A2991 RMK SLP131
DENSITY ALT 800FT=

Extra information for CYHU:More info

Metar Taf Metar & Taf Last 4 Metars F.Rules Stats Wind Profile Meteogram Temp Stats Airport Information Weather charts Add Link Nearby VenuesMetar ALERT Operation Metar Decoded Social comments